Terminal Aerodrome Forecast
Issued by NWS Wilmington, OH

Current Version | Previous Version | Text Only | Print | Product List | Glossary Off
Versions: 1 2 3 4 5 6 7 8 9 10 11 12 13 14

028
FTUS41 KILN 220243 AAA
TAFILN
TAF AMD
KILN 220243Z 2203/2224 34013G18KT P6SM OVC110
     FM220500 35014KT P6SM SCT250
     FM221400 03010G16KT P6SM SKC
     FM222300 04008KT P6SM SCT250=

USA.gov is the U.S. government's official web portal to all federal, state and local government web resources and services.